Time;durP1;ratioP1;P1;durP2;ratioP2;P2;SDS_P1;SDS_P2;PMS_P1;PMS_P2;Temp;Humidity;BMP_temperature;BMP_pressure;BME280_temperature;BME280_humidity;BME280_pressure;Samples;Min_cycle;Max_cycle;Signal;HPM_P1;HPM_P2
2022/06/04 00:02:47;;;;;;;3.70;1.57;;;;;;;14.67;66.25;101239.75;6015060;28;20038;-66
2022/06/04 00:05:47;;;;;;;3.90;1.55;;;;;;;14.50;66.41;101237.97;6026496;28;20037;-66
2022/06/04 00:08:42;;;;;;;5.10;1.80;;;;;;;14.49;67.55;101232.78;6010705;28;20465;-66
2022/06/04 00:18:07;;;;;;;3.83;2.08;;;;;;;14.39;67.44;101221.41;6026886;28;20042;-66
2022/06/04 00:21:02;;;;;;;4.00;2.00;;;;;;;14.49;66.70;101227.44;6023105;28;20038;-66
2022/06/04 00:23:58;;;;;;;4.60;1.65;;;;;;;14.38;66.85;101225.06;6025721;28;20460;-66
2022/06/04 00:26:53;;;;;;;2.83;1.60;;;;;;;14.41;67.11;101222.91;6026371;28;20037;-66
2022/06/04 00:29:48;;;;;;;4.07;1.50;;;;;;;14.32;67.18;101224.69;6024777;28;20281;-66
2022/06/04 00:32:44;;;;;;;2.65;1.52;;;;;;;14.53;67.77;101227.00;6025105;28;20038;-66
2022/06/04 00:35:40;;;;;;;5.03;1.73;;;;;;;14.35;66.96;101222.72;6026944;28;20121;-66
2022/06/04 00:38:35;;;;;;;2.63;1.80;;;;;;;14.13;67.70;101227.53;6025754;28;20316;-66
2022/06/04 00:42:06;;;;;;;3.17;1.40;;;;;;;14.05;68.69;101224.81;6024977;28;20237;-66
2022/06/04 00:45:23;;;;;;;3.63;1.63;;;;;;;14.08;68.63;101223.66;6020229;28;20446;-66
2022/06/04 00:48:20;;;;;;;4.50;1.80;;;;;;;14.02;69.04;101213.63;6025924;28;20560;-66
2022/06/04 00:51:15;;;;;;;3.72;1.90;;;;;;;14.08;69.21;101216.50;6024843;28;20038;-66
2022/06/04 00:54:11;;;;;;;4.30;1.80;;;;;;;14.04;68.74;101198.31;6026528;28;20092;-66
2022/06/04 00:57:30;;;;;;;3.90;1.70;;;;;;;13.97;68.61;101200.75;6019292;28;20050;-66
2022/06/04 01:00:33;;;;;;;3.40;2.00;;;;;;;13.76;68.59;101205.59;6040990;28;20038;-66
2022/06/04 01:03:41;;;;;;;3.20;1.80;;;;;;;13.62;69.57;101198.13;6024313;28;20069;-66
2022/06/04 01:06:47;;;;;;;6.13;1.77;;;;;;;13.45;69.84;101207.81;6015162;28;20037;-66
2022/06/04 01:10:26;;;;;;;4.05;1.80;;;;;;;13.37;71.11;101213.06;6025116;28;20035;-66
2022/06/04 01:13:45;;;;;;;3.75;1.73;;;;;;;13.38;70.55;101225.41;6024084;28;20038;-66
2022/06/04 01:17:13;;;;;;;2.88;1.80;;;;;;;13.38;71.43;101222.75;6033944;28;20034;-66
2022/06/04 01:20:31;;;;;;;4.75;2.00;;;;;;;13.13;71.71;101225.31;6024022;28;20113;-66
2022/06/04 01:23:38;;;;;;;4.68;1.70;;;;;;;13.37;71.30;101237.03;6038382;28;20092;-66
2022/06/04 01:26:40;;;;;;;3.45;1.58;;;;;;;13.31;71.39;101242.16;6024206;28;20101;-66
2022/06/04 01:29:47;;;;;;;3.40;1.50;;;;;;;13.21;70.68;101230.72;6040849;28;20039;-66
2022/06/04 01:32:53;;;;;;;2.85;1.75;;;;;;;13.19;71.86;101243.34;6022388;28;20683;-66
2022/06/04 01:35:56;;;;;;;4.07;1.70;;;;;;;13.24;71.66;101236.56;6030104;28;20035;-66
2022/06/04 01:39:02;;;;;;;4.18;1.75;;;;;;;13.23;71.74;101245.56;6028809;28;20113;-66
2022/06/04 01:41:59;;;;;;;4.95;1.77;;;;;;;13.35;72.21;101235.50;6022694;28;20041;-66
2022/06/04 01:44:57;;;;;;;5.07;2.00;;;;;;;13.24;71.59;101214.41;6024553;28;20529;-66
2022/06/04 01:47:56;;;;;;;3.03;2.10;;;;;;;13.30;70.55;101229.81;6056288;28;20041;-66
2022/06/04 01:50:55;;;;;;;5.43;2.03;;;;;;;13.34;70.64;101232.03;6024123;28;20524;-66
2022/06/04 01:53:54;;;;;;;3.85;1.77;;;;;;;13.35;70.07;101217.72;6016697;28;20041;-66
2022/06/04 01:56:52;;;;;;;3.22;1.77;;;;;;;13.17;70.22;101224.84;6022286;28;20022;-66
2022/06/04 01:59:51;;;;;;;2.63;1.60;;;;;;;13.10;70.01;101224.59;6024480;28;20030;-66
2022/06/04 02:02:58;;;;;;;4.40;1.52;;;;;;;13.13;69.61;101230.66;6012318;28;20049;-66
2022/06/04 02:05:56;;;;;;;3.28;1.60;;;;;;;12.86;70.19;101223.44;6024746;28;20034;-66
2022/06/04 02:08:55;;;;;;;3.42;1.83;;;;;;;13.13;68.84;101229.63;6025467;28;20153;-66
2022/06/04 02:11:53;;;;;;;3.33;1.83;;;;;;;13.13;68.20;101237.63;6036570;28;20035;-66
2022/06/04 02:14:48;;;;;;;3.03;1.55;;;;;;;12.96;68.48;101254.34;6040390;28;20121;-66
2022/06/04 02:17:46;;;;;;;3.72;1.73;;;;;;;12.94;68.88;101251.00;6017129;28;20390;-66
2022/06/04 02:20:41;;;;;;;2.50;1.52;;;;;;;12.96;68.79;101248.22;6022280;28;20049;-66
2022/06/04 02:23:38;;;;;;;2.33;1.33;;;;;;;12.81;69.14;101239.88;6020566;28;20034;-66
2022/06/04 02:26:34;;;;;;;3.67;1.70;;;;;;;12.72;68.75;101250.59;6027550;28;20360;-66
2022/06/04 02:29:29;;;;;;;3.95;1.60;;;;;;;12.61;68.60;101246.25;6029383;28;20046;-66
2022/06/04 02:32:36;;;;;;;3.00;1.40;;;;;;;12.48;69.29;101251.06;6027527;28;20038;-66
2022/06/04 02:35:39;;;;;;;3.35;1.73;;;;;;;12.44;69.70;101273.63;6028068;28;20109;-66
2022/06/04 02:38:44;;;;;;;3.72;1.50;;;;;;;12.18;70.76;101278.72;6028563;28;20030;-66
2022/06/04 02:41:48;;;;;;;3.15;1.20;;;;;;;12.11;70.90;101276.78;6027794;28;20062;-66
2022/06/04 02:44:48;;;;;;;3.25;1.50;;;;;;;11.90;71.76;101282.25;6028961;28;20097;-66
2022/06/04 02:47:55;;;;;;;2.97;1.60;;;;;;;12.01;74.36;101281.28;6037920;28;20508;-66
2022/06/04 02:50:56;;;;;;;4.40;1.65;;;;;;;11.94;74.16;101279.16;6021910;28;20092;-66
2022/06/04 02:53:52;;;;;;;2.95;1.85;;;;;;;11.90;75.45;101285.72;6034055;28;20084;-66
2022/06/04 02:56:48;;;;;;;4.53;1.98;;;;;;;12.02;73.77;101293.56;6042578;28;20027;-66
2022/06/04 02:59:47;;;;;;;3.85;1.80;;;;;;;11.62;74.67;101283.91;6016639;28;20062;-66
2022/06/04 03:02:43;;;;;;;4.47;1.60;;;;;;;11.52;75.85;101288.38;6029028;28;20049;-66
2022/06/04 03:05:50;;;;;;;2.88;1.63;;;;;;;11.50;75.96;101284.97;6027693;28;20031;-66
2022/06/04 03:08:45;;;;;;;3.17;1.58;;;;;;;11.40;75.49;101284.16;6024839;28;20038;-66
2022/06/04 03:11:46;;;;;;;2.58;1.40;;;;;;;11.33;76.95;101281.19;6027253;28;20240;-66
2022/06/04 03:14:41;;;;;;;;;;;;;;;11.29;75.59;101278.94;6028052;28;20038;-66
2022/06/04 03:17:38;;;;;;;3.07;1.60;;;;;;;11.25;76.23;101269.59;6028181;28;19917;-66
2022/06/04 03:20:35;;;;;;;2.90;1.50;;;;;;;11.28;76.10;101267.47;6022241;28;20073;-67
2022/06/04 03:23:31;;;;;;;3.42;1.60;;;;;;;11.26;77.08;101272.09;6022313;28;20042;-66
2022/06/04 03:26:26;;;;;;;3.30;1.63;;;;;;;11.27;76.09;101268.47;6033837;28;20503;-66
2022/06/04 03:29:22;;;;;;;2.37;1.50;;;;;;;11.08;77.06;101257.81;6027702;28;20042;-66
2022/06/04 03:32:17;;;;;;;3.53;1.73;;;;;;;10.91;77.91;101277.03;6034308;28;20042;-66
2022/06/04 03:35:14;;;;;;;2.40;1.67;;;;;;;10.89;78.09;101286.09;6030938;28;20277;-66
2022/06/04 03:38:09;;;;;;;4.10;2.10;;;;;;;10.86;79.28;101291.66;6025575;28;20124;-66
2022/06/04 03:41:05;;;;;;;5.85;2.03;;;;;;;10.73;78.64;101286.59;6029412;28;20415;-66
2022/06/04 03:44:00;;;;;;;5.28;1.52;;;;;;;10.86;78.13;101291.66;6027671;28;20058;-66
2022/06/04 03:46:56;;;;;;;4.03;1.47;;;;;;;10.91;77.51;101278.84;6027462;28;20030;-66
2022/06/04 03:49:51;;;;;;;3.25;1.60;;;;;;;11.06;77.50;101283.63;6021760;28;20300;-66
2022/06/04 03:52:47;;;;;;;5.63;1.60;;;;;;;11.18;76.95;101287.88;6021691;28;20046;-66
2022/06/04 03:55:43;;;;;;;2.42;1.60;;;;;;;11.20;75.71;101262.03;6030298;28;20034;-66
2022/06/04 03:58:38;;;;;;;2.70;1.27;;;;;;;11.28;75.51;101269.28;6037693;28;20367;-66
2022/06/04 04:01:34;;;;;;;3.28;1.60;;;;;;;11.46;73.70;101282.75;6019197;28;20038;-66
2022/06/04 04:04:29;;;;;;;2.57;1.33;;;;;;;11.77;74.31;101277.22;6026740;28;20053;-66
2022/06/04 04:07:24;;;;;;;2.30;1.40;;;;;;;11.72;72.36;101271.47;6027219;28;20339;-66
2022/06/04 04:10:21;;;;;;;1.88;1.30;;;;;;;11.98;70.82;101268.25;6026045;28;20061;-66
2022/06/04 04:13:17;;;;;;;2.33;1.30;;;;;;;12.33;69.63;101276.47;6021975;28;20397;-66
2022/06/04 04:16:14;;;;;;;3.13;1.40;;;;;;;12.40;68.63;101280.22;6027353;28;20031;-66
2022/06/04 04:19:09;;;;;;;2.58;1.35;;;;;;;12.60;65.94;101279.19;6026344;28;20042;-66
2022/06/04 04:22:05;;;;;;;5.00;1.37;;;;;;;12.89;65.75;101279.91;6018833;28;20108;-66
2022/06/04 04:25:00;;;;;;;1.65;1.10;;;;;;;13.32;64.87;101287.28;6026291;28;20066;-66
2022/06/04 04:27:56;;;;;;;2.33;1.27;;;;;;;13.76;62.06;101282.91;6026930;28;20053;-66
2022/06/04 04:30:51;;;;;;;4.50;1.40;;;;;;;14.43;58.46;101284.94;6021630;28;20039;-66
2022/06/04 04:33:47;;;;;;;2.83;1.20;;;;;;;14.46;59.12;101283.84;6024586;28;20050;-66
2022/06/04 04:36:45;;;;;;;2.17;1.13;;;;;;;14.60;58.69;101275.22;6017782;28;20053;-66
2022/06/04 04:39:40;;;;;;;1.88;1.10;;;;;;;14.38;58.33;101278.44;6026766;28;20899;-66
2022/06/04 04:42:35;;;;;;;2.50;1.20;;;;;;;14.72;57.63;101269.47;6018450;28;20034;-66
2022/06/04 04:45:31;;;;;;;2.00;1.13;;;;;;;14.78;59.01;101268.00;6026358;28;20034;-66
2022/06/04 04:48:27;;;;;;;2.85;1.20;;;;;;;15.31;55.61;101268.53;6037714;28;20402;-66
2022/06/04 04:51:24;;;;;;;2.65;1.20;;;;;;;15.69;55.53;101279.66;6024001;28;20022;-66
2022/06/04 04:54:19;;;;;;;2.05;1.40;;;;;;;16.21;56.45;101281.00;6026526;28;20030;-66
2022/06/04 04:57:14;;;;;;;4.37;1.33;;;;;;;16.46;54.82;101285.34;6023949;28;20084;-67
2022/06/04 05:00:11;;;;;;;3.13;1.17;;;;;;;16.41;53.21;101282.34;6025428;28;20728;-66
2022/06/04 05:03:06;;;;;;;1.65;1.25;;;;;;;15.86;53.70;101302.75;6015328;28;20470;-66
2022/06/04 05:06:03;;;;;;;2.73;1.23;;;;;;;16.88;51.94;101294.94;6027595;28;20053;-66
2022/06/04 05:08:58;;;;;;;2.90;1.13;;;;;;;17.11;50.04;101311.97;6026289;28;20034;-66
2022/06/04 05:11:54;;;;;;;4.18;1.20;;;;;;;17.16;52.00;101307.75;6017823;28;20026;-66
2022/06/04 05:14:49;;;;;;;1.60;1.20;;;;;;;16.71;51.12;101304.06;6025516;28;20045;-66
2022/06/04 05:17:44;;;;;;;2.00;1.10;;;;;;;16.68;49.30;101297.22;6025879;28;20035;-66
2022/06/04 05:20:42;;;;;;;1.57;1.00;;;;;;;16.55;50.73;101305.75;6023272;28;20041;-66
2022/06/04 05:23:38;;;;;;;3.72;1.17;;;;;;;16.03;52.02;101288.38;6026114;28;20113;-66
2022/06/04 05:26:34;;;;;;;2.35;1.10;;;;;;;16.41;52.68;101295.72;6024188;28;20065;-66
2022/06/04 05:29:31;;;;;;;3.03;1.30;;;;;;;16.06;52.89;101290.72;6023433;28;20032;-66
2022/06/04 05:32:26;;;;;;;2.60;1.15;;;;;;;16.45;52.55;101288.16;6022371;28;20042;-66
2022/06/04 05:35:22;;;;;;;2.97;1.30;;;;;;;17.28;53.06;101276.03;6026054;28;20046;-66
2022/06/04 05:38:17;;;;;;;1.53;1.07;;;;;;;17.46;50.61;101290.00;6030934;28;20050;-66
2022/06/04 05:41:15;;;;;;;3.15;1.30;;;;;;;17.68;48.95;101283.88;6024373;28;20113;-66
2022/06/04 05:44:11;;;;;;;5.00;1.70;;;;;;;17.84;50.10;101288.28;6022685;28;20049;-66
2022/06/04 05:47:06;;;;;;;2.95;1.38;;;;;;;17.33;49.13;101300.47;6014372;28;20082;-66
2022/06/04 05:50:02;;;;;;;2.83;1.45;;;;;;;17.52;48.62;101294.69;6024755;28;20030;-66
2022/06/04 05:52:58;;;;;;;2.33;1.08;;;;;;;17.36;47.80;101313.53;6030721;28;20049;-66
2022/06/04 05:55:53;;;;;;;6.20;1.53;;;;;;;17.59;49.17;101310.91;6038568;28;20114;-66
2022/06/04 05:58:50;;;;;;;3.53;1.10;;;;;;;17.96;48.30;101324.44;6025682;28;20557;-66
2022/06/04 06:01:46;;;;;;;1.80;1.30;;;;;;;17.49;48.61;101329.91;6028242;28;20030;-66
2022/06/04 06:04:42;;;;;;;3.30;1.30;;;;;;;17.54;46.95;101340.97;6030121;28;20461;-66
2022/06/04 06:07:37;;;;;;;1.83;1.00;;;;;;;17.37;47.06;101328.59;6030078;28;20029;-66
2022/06/04 06:10:38;;;;;;;2.60;1.00;;;;;;;17.62;45.41;101334.69;6038063;28;20038;-66
2022/06/04 06:13:33;;;;;;;2.22;0.90;;;;;;;17.23;45.02;101337.38;6032551;28;20073;-66
2022/06/04 06:16:30;;;;;;;1.17;0.90;;;;;;;17.49;46.15;101343.31;6029449;28;20576;-66
2022/06/04 06:19:26;;;;;;;1.95;1.02;;;;;;;17.36;45.75;101355.59;6030332;28;20351;-66
2022/06/04 06:22:21;;;;;;;1.63;1.10;;;;;;;16.71;46.59;101350.44;6031770;28;20038;-66
2022/06/04 06:25:17;;;;;;;1.73;1.00;;;;;;;16.68;46.10;101342.75;6038468;28;20473;-66
2022/06/04 06:28:14;;;;;;;1.07;0.80;;;;;;;16.84;46.01;101355.25;6034284;28;20065;-66
2022/06/04 06:31:14;;;;;;;2.60;1.10;;;;;;;16.76;47.12;101352.59;6028617;28;20065;-66
2022/06/04 06:34:09;;;;;;;2.58;0.93;;;;;;;17.00;47.66;101353.38;6028315;28;20406;-66
2022/06/04 06:37:04;;;;;;;4.72;1.02;;;;;;;17.35;47.33;101346.72;6029115;28;20026;-66
2022/06/04 06:40:00;;;;;;;2.00;1.07;;;;;;;17.16;46.19;101352.47;6029009;28;20058;-66
2022/06/04 06:42:55;;;;;;;1.63;0.98;;;;;;;17.32;44.75;101351.56;6029031;28;20030;-67
2022/06/04 06:45:50;;;;;;;2.77;1.20;;;;;;;17.45;45.53;101362.59;6029752;28;20028;-66
2022/06/04 06:48:47;;;;;;;3.00;1.07;;;;;;;17.80;44.86;101376.34;6028962;28;20030;-66
2022/06/04 06:51:45;;;;;;;3.88;1.00;;;;;;;17.30;45.97;101381.25;6028244;28;20501;-66
2022/06/04 06:54:41;;;;;;;1.52;1.00;;;;;;;17.72;45.13;101389.81;6029135;28;20092;-66
2022/06/04 06:57:36;;;;;;;2.00;1.10;;;;;;;17.90;46.18;101394.06;6028742;28;20061;-66
2022/06/04 07:00:32;;;;;;;1.23;0.90;;;;;;;18.21;43.61;101386.81;6028986;28;20512;-66
2022/06/04 07:03:27;;;;;;;1.77;0.90;;;;;;;18.79;43.86;101399.63;6028770;28;20049;-66
2022/06/04 07:06:41;;;;;;;4.43;0.97;;;;;;;18.29;43.45;101400.22;6028495;28;20034;-66
2022/06/04 07:09:39;;;;;;;3.15;0.98;;;;;;;18.75;43.04;101399.16;6028835;28;20031;-66
2022/06/04 07:12:35;;;;;;;1.35;0.98;;;;;;;18.84;42.17;101398.06;6026990;28;20035;-66
2022/06/04 07:15:30;;;;;;;1.58;1.10;;;;;;;19.55;42.33;101396.63;6028607;28;20081;-66
2022/06/04 07:18:25;;;;;;;2.47;1.07;;;;;;;20.02;41.00;101391.59;6029434;28;20457;-66
2022/06/04 07:21:21;;;;;;;3.53;1.13;;;;;;;19.04;42.08;101401.06;6027696;28;20034;-66
2022/06/04 07:24:16;;;;;;;2.75;1.10;;;;;;;19.14;42.88;101403.47;6028055;28;20118;-66
2022/06/04 07:27:12;;;;;;;2.17;1.00;;;;;;;19.53;43.31;101407.59;6026811;28;20069;-66
2022/06/04 07:30:08;;;;;;;1.00;0.83;;;;;;;19.52;42.32;101405.91;6027806;28;20085;-67
2022/06/04 07:33:03;;;;;;;2.75;1.00;;;;;;;19.97;40.21;101403.97;6028225;28;20027;-66
2022/06/04 07:35:59;;;;;;;2.80;1.13;;;;;;;19.83;42.52;101402.16;6033330;28;20496;-67
2022/06/04 07:38:55;;;;;;;3.20;1.30;;;;;;;20.04;40.19;101394.94;6028004;28;20576;-67
2022/06/04 07:41:52;;;;;;;2.13;1.50;;;;;;;19.25;43.38;101405.69;6026861;28;20474;-66
2022/06/04 07:44:47;;;;;;;3.15;1.20;;;;;;;20.27;40.94;101402.03;6027584;28;20505;-67
2022/06/04 07:47:44;;;;;;;2.13;1.30;;;;;;;19.90;41.65;101400.34;6027609;28;20034;-66
2022/06/04 07:50:39;;;;;;;2.33;1.13;;;;;;;20.39;41.00;101397.78;6027583;28;20038;-66
2022/06/04 07:53:35;;;;;;;2.00;1.30;;;;;;;19.89;41.87;101402.22;6030868;28;20030;-66
2022/06/04 07:56:30;;;;;;;1.65;1.20;;;;;;;20.15;40.77;101391.75;6027462;28;20042;-67
2022/06/04 07:59:26;;;;;;;3.47;1.10;;;;;;;20.60;40.88;101390.50;6027526;28;20117;-67
2022/06/04 08:02:24;;;;;;;2.58;1.30;;;;;;;21.32;40.87;101384.81;6026796;28;20513;-66
2022/06/04 08:05:20;;;;;;;2.83;1.48;;;;;;;21.02;40.38;101378.81;6027267;28;20122;-66
2022/06/04 08:08:15;;;;;;;3.27;1.40;;;;;;;20.92;40.04;101374.81;6027368;28;20505;-66
2022/06/04 08:14:25;;;;;;;1.83;1.20;;;;;;;20.71;42.08;101389.16;6027168;28;20389;-67
2022/06/04 08:17:23;;;;;;;3.42;1.38;;;;;;;20.46;41.70;101391.44;6025329;28;20030;-66
2022/06/04 08:20:18;;;;;;;2.30;1.40;;;;;;;20.35;41.69;101385.75;6026220;28;20501;-68
2022/06/04 08:23:14;;;;;;;3.65;1.30;;;;;;;20.72;41.42;101399.75;6026496;28;20108;-66
2022/06/04 08:26:10;;;;;;;2.20;1.13;;;;;;;20.43;40.18;101396.38;6027622;28;20134;-66
2022/06/04 08:29:05;;;;;;;2.15;1.13;;;;;;;20.57;41.49;101384.69;6027039;28;20597;-66
2022/06/04 08:32:02;;;;;;;2.13;1.13;;;;;;;21.30;39.62;101387.75;6025668;28;20045;-66
2022/06/04 08:34:57;;;;;;;1.73;1.20;;;;;;;21.17;40.84;101382.25;6026279;28;20165;-66
2022/06/04 08:37:53;;;;;;;3.27;1.30;;;;;;;21.42;40.92;101397.94;6026322;28;20030;-66
2022/06/04 08:40:51;;;;;;;2.95;1.40;;;;;;;20.86;39.83;101394.44;6027416;28;20280;-65
2022/06/04 08:43:49;;;;;;;3.88;1.40;;;;;;;21.47;39.79;101398.19;6026529;28;20085;-66
2022/06/04 08:46:53;;;;;;;3.65;1.27;;;;;;;21.30;39.77;101395.84;6025195;28;20066;-66
2022/06/04 08:50:20;;;;;;;6.95;1.27;;;;;;;21.46;40.14;101391.13;6026131;28;20034;-66
2022/06/04 08:53:22;;;;;;;10.65;2.97;;;;;;;21.56;40.43;101383.47;6021619;28;20042;-66
2022/06/04 09:00:09;;;;;;;2.92;1.30;;;;;;;21.72;41.49;101383.13;5997477;28;20057;-66
2022/06/04 09:03:16;;;;;;;3.28;1.30;;;;;;;21.66;41.03;101392.84;6026216;28;20164;-66
2022/06/04 09:06:38;;;;;;;3.70;1.50;;;;;;;21.57;39.85;101395.94;6026414;28;20034;-68
2022/06/04 09:09:45;;;;;;;1.98;1.10;;;;;;;21.47;41.18;101398.19;6041212;28;20034;-66
2022/06/04 09:12:46;;;;;;;4.10;1.48;;;;;;;21.59;42.51;101402.81;6024448;28;20034;-66
2022/06/04 09:15:45;;;;;;;4.38;1.42;;;;;;;21.90;40.33;101400.44;6027066;28;20485;-66
2022/06/04 09:18:41;;;;;;;7.07;1.60;;;;;;;22.02;40.83;101413.38;6024917;28;20030;-66
2022/06/04 09:21:38;;;;;;;3.90;1.40;;;;;;;22.45;40.61;101403.88;6024122;28;20065;-66
2022/06/04 09:24:33;;;;;;;2.40;1.25;;;;;;;22.63;40.46;101400.59;6025734;28;20126;-66
2022/06/04 09:27:32;;;;;;;2.23;1.33;;;;;;;23.10;39.91;101417.44;6025238;28;20039;-66
2022/06/04 09:30:37;;;;;;;4.22;1.65;;;;;;;22.85;38.55;101412.91;6025157;28;20045;-66
2022/06/04 09:33:42;;;;;;;4.60;1.58;;;;;;;22.75;39.75;101415.16;6025643;28;20035;-66
2022/06/04 09:36:38;;;;;;;2.53;1.45;;;;;;;21.91;40.94;101417.50;6028901;28;20117;-66
2022/06/04 09:39:40;;;;;;;3.40;1.50;;;;;;;22.61;39.87;101408.09;6029457;28;20034;-66
2022/06/04 09:42:35;;;;;;;2.25;1.20;;;;;;;22.78;39.29;101407.47;6029812;28;20114;-66
2022/06/04 09:45:31;;;;;;;2.95;1.30;;;;;;;22.54;40.26;101413.47;6030278;28;20123;-66
2022/06/04 09:48:35;;;;;;;2.08;1.40;;;;;;;23.01;39.81;101407.03;6031603;28;20118;-66
2022/06/04 09:51:38;;;;;;;2.45;1.33;;;;;;;23.09;40.35;101407.66;6044450;28;20545;-66
2022/06/04 09:54:34;;;;;;;3.13;1.60;;;;;;;23.02;38.71;101409.53;6028997;28;20034;-66
2022/06/04 09:57:37;;;;;;;2.70;1.33;;;;;;;23.04;39.85;101412.03;6028929;28;20037;-66
2022/06/04 10:00:35;;;;;;;2.20;1.23;;;;;;;23.18;40.32;101400.16;6029306;28;20293;-66
2022/06/04 10:03:33;;;;;;;4.03;1.60;;;;;;;22.83;39.87;101418.50;6028828;28;20757;-66
2022/06/04 10:06:28;;;;;;;3.38;1.40;;;;;;;23.66;40.24;101423.16;6030184;28;20045;-66
2022/06/04 10:15:56;;;;;;;3.03;1.50;;;;;;;23.25;38.88;101416.38;6028151;28;20121;-67
2022/06/04 10:18:57;;;;;;;4.05;1.50;;;;;;;23.64;41.38;101410.88;6029169;28;20034;-67
2022/06/04 10:22:07;;;;;;;3.10;1.60;;;;;;;23.27;38.24;101420.53;6029614;28;20397;-66
2022/06/04 10:25:03;;;;;;;2.53;1.70;;;;;;;23.11;39.55;101410.97;6029591;28;20026;-66
2022/06/04 10:28:10;;;;;;;2.67;1.50;;;;;;;23.10;38.91;101397.69;6028457;28;20072;-66
2022/06/04 10:31:21;;;;;;;4.30;1.70;;;;;;;23.35;39.31;101401.34;6026828;28;20478;-66
2022/06/04 10:34:49;;;;;;;5.22;1.67;;;;;;;23.08;39.26;101407.84;6027982;28;20088;-66
2022/06/04 10:38:09;;;;;;;2.80;1.50;;;;;;;22.81;40.83;101417.03;6026585;28;20045;-66
2022/06/04 10:41:19;;;;;;;3.17;1.33;;;;;;;23.68;40.26;101404.81;6027616;28;20038;-67
2022/06/04 10:44:31;;;;;;;3.58;1.65;;;;;;;24.24;38.40;101402.22;6027957;28;20030;-66
2022/06/04 10:47:42;;;;;;;3.58;1.50;;;;;;;23.69;38.61;101403.78;6027028;28;20038;-66
2022/06/04 10:54:34;;;;;;;4.10;1.75;;;;;;;23.62;41.76;101408.38;6019793;28;20042;-66
2022/06/04 10:57:52;;;;;;;4.82;1.83;;;;;;;23.70;38.28;101402.69;6027106;28;20033;-66
2022/06/04 11:01:09;;;;;;;3.17;2.10;;;;;;;23.98;39.46;101398.81;6027228;28;20030;-67
2022/06/04 11:04:19;;;;;;;3.10;1.80;;;;;;;23.94;37.17;101405.72;6027452;28;20038;-66
2022/06/04 11:07:52;;;;;;;3.15;1.75;;;;;;;23.84;37.59;101395.34;6026991;28;20549;-66
2022/06/04 11:11:09;;;;;;;4.10;1.92;;;;;;;24.34;39.27;101396.34;6025242;28;20132;-67
2022/06/04 11:14:37;;;;;;;4.10;1.90;;;;;;;24.24;37.20;101409.56;6046127;28;20069;-67
2022/06/04 11:18:04;;;;;;;5.47;2.40;;;;;;;24.18;37.58;101408.53;6025092;28;20037;-66
2022/06/04 11:21:15;;;;;;;3.15;1.90;;;;;;;24.73;37.37;101404.13;6025463;28;20030;-66
2022/06/04 11:24:17;;;;;;;2.72;1.80;;;;;;;25.45;35.14;101405.34;6025157;28;20030;-67
2022/06/04 11:27:20;;;;;;;2.95;1.73;;;;;;;25.12;36.20;101400.25;5989162;28;1026537;-67
2022/06/04 11:30:19;;;;;;;2.75;1.70;;;;;;;24.96;34.84;101400.00;6028760;28;20048;-67
2022/06/04 11:33:22;;;;;;;3.53;1.98;;;;;;;25.45;35.50;101392.59;6025627;28;20042;-67
2022/06/04 11:36:28;;;;;;;2.92;2.00;;;;;;;25.98;39.73;101395.47;6042876;28;20041;-67
2022/06/04 11:39:48;;;;;;;2.72;2.00;;;;;;;25.85;33.92;101384.78;6041771;28;20038;-67
2022/06/04 11:42:58;;;;;;;4.00;2.10;;;;;;;25.66;36.51;101391.31;6026313;28;20042;-66
2022/06/04 11:45:56;;;;;;;3.38;2.15;;;;;;;25.33;35.54;101382.69;6027658;28;20504;-67
2022/06/04 11:49:01;;;;;;;4.85;2.20;;;;;;;25.43;35.48;101397.44;6036806;28;20034;-66
2022/06/04 11:52:05;;;;;;;5.00;2.15;;;;;;;25.36;35.45;101393.09;6026407;28;20038;-67
2022/06/04 11:55:22;;;;;;;3.65;1.92;;;;;;;25.11;35.27;101387.72;6026702;28;20050;-67
2022/06/04 11:58:36;;;;;;;3.65;2.30;;;;;;;25.05;37.63;101390.53;6026148;28;20030;-67
2022/06/04 12:01:39;;;;;;;4.20;2.40;;;;;;;25.08;37.04;101388.22;6026585;28;20104;-67
2022/06/04 12:04:40;;;;;;;4.53;2.58;;;;;;;24.82;37.29;101378.44;6026600;28;20149;-66
2022/06/04 12:07:39;;;;;;;3.97;2.20;;;;;;;24.46;38.16;101383.72;6025524;28;20574;-67
2022/06/04 12:11:15;;;;;;;3.72;2.38;;;;;;;25.40;35.15;101383.47;6026144;28;20037;-67
2022/06/04 12:14:21;;;;;;;4.03;2.28;;;;;;;25.41;37.96;101391.38;6024355;28;20532;-67
2022/06/04 12:17:26;;;;;;;5.35;2.45;;;;;;;26.39;36.24;101385.72;6041302;28;20113;-67
2022/06/04 12:27:22;;;;;;;4.05;2.13;;;;;;;27.46;35.51;101376.25;6026364;28;20613;-67
2022/06/04 12:30:37;;;;;;;3.53;2.70;;;;;;;27.08;34.96;101374.06;6025934;28;20038;-67
2022/06/04 12:33:39;;;;;;;3.35;2.30;;;;;;;26.38;35.80;101375.88;6025554;28;20077;-67
2022/06/04 12:36:37;;;;;;;3.20;2.55;;;;;;;26.09;36.55;101384.88;6027937;28;20125;-67
2022/06/04 12:39:38;;;;;;;4.47;2.53;;;;;;;25.83;38.11;101395.06;6025451;28;20034;-67
2022/06/04 12:42:33;;;;;;;3.40;2.38;;;;;;;25.30;36.80;101394.03;6023846;28;20117;-67
2022/06/04 12:45:39;;;;;;;3.57;2.60;;;;;;;25.09;37.92;101389.00;6026247;28;20042;-66
2022/06/04 12:48:55;;;;;;;4.13;2.53;;;;;;;24.84;38.24;101383.63;6025390;28;20038;-67
2022/06/04 12:52:08;;;;;;;3.97;2.58;;;;;;;25.25;38.61;101393.84;6060655;28;20038;-67
2022/06/04 12:55:32;;;;;;;3.38;2.40;;;;;;;25.29;38.90;101395.06;6028531;28;20038;-67
2022/06/04 12:58:37;;;;;;;5.13;2.97;;;;;;;25.53;38.44;101396.91;6029592;28;20042;-67
2022/06/04 13:01:37;;;;;;;4.75;2.85;;;;;;;25.45;37.18;101386.31;6024357;28;20037;-67
2022/06/04 13:04:36;;;;;;;4.68;2.30;;;;;;;25.40;38.62;101397.03;6030309;28;20033;-67
2022/06/04 13:07:37;;;;;;;3.40;2.08;;;;;;;25.20;38.64;101388.28;6029600;28;20232;-67
2022/06/04 13:10:39;;;;;;;5.07;2.50;;;;;;;24.97;38.95;101391.66;6025460;28;20038;-67
2022/06/04 13:14:02;;;;;;;3.38;2.63;;;;;;;24.62;39.66;101399.44;6024417;28;20110;-66
2022/06/04 13:16:58;;;;;;;5.35;2.58;;;;;;;24.65;40.43;101401.72;6040635;28;20034;-67
2022/06/04 13:20:12;;;;;;;4.90;2.90;;;;;;;25.00;40.43;101404.78;6026026;28;20129;-66
2022/06/04 13:23:23;;;;;;;3.05;2.08;;;;;;;25.39;39.96;101398.91;6026140;28;20046;-67
2022/06/04 13:26:30;;;;;;;4.28;2.47;;;;;;;25.42;38.19;101397.63;6040590;28;20095;-67
2022/06/04 13:29:30;;;;;;;3.15;2.60;;;;;;;25.82;37.05;101406.19;6028680;28;20057;-67
2022/06/04 13:32:25;;;;;;;4.20;2.75;;;;;;;25.64;36.70;101398.03;6025299;28;20069;-67
2022/06/04 13:35:23;;;;;;;4.60;2.87;;;;;;;25.20;38.28;101386.38;6025468;28;20026;-67
2022/06/04 13:38:38;;;;;;;3.63;2.60;;;;;;;25.36;37.33;101396.66;6025359;28;20286;-67
2022/06/04 13:44:56;;;;;;;3.33;2.50;;;;;;;25.91;38.70;101383.03;6024527;28;20046;-67
2022/06/04 13:47:55;;;;;;;3.55;2.47;;;;;;;26.03;38.38;101381.22;6040677;28;20038;-67
2022/06/04 13:50:54;;;;;;;3.58;2.70;;;;;;;25.94;37.18;101377.97;6024614;28;20035;-67
2022/06/04 13:53:53;;;;;;;4.45;2.88;;;;;;;25.41;38.07;101388.66;6025528;28;20053;-66
2022/06/04 13:56:50;;;;;;;3.70;2.55;;;;;;;25.79;38.35;101385.69;6026373;28;20048;-67
2022/06/04 13:59:48;;;;;;;4.47;2.58;;;;;;;26.02;37.67;101380.38;6024227;28;20054;-67
2022/06/04 14:02:45;;;;;;;3.20;2.80;;;;;;;26.78;35.52;101379.63;6039959;28;20026;-67
2022/06/04 14:05:48;;;;;;;4.88;2.85;;;;;;;26.61;36.61;101384.06;6024276;28;20117;-67
2022/06/04 14:08:49;;;;;;;4.78;3.40;;;;;;;25.62;35.99;101384.69;6024101;28;20041;-67
2022/06/04 14:12:04;;;;;;;5.47;2.78;;;;;;;25.53;36.74;101363.47;6031015;28;20381;-67
2022/06/04 14:15:06;;;;;;;4.40;2.90;;;;;;;25.76;36.68;101369.88;6040682;28;20072;-67
2022/06/04 14:18:28;;;;;;;7.30;2.78;;;;;;;27.25;36.02;101369.53;6025143;28;20038;-67
2022/06/04 14:21:45;;;;;;;3.70;2.95;;;;;;;26.89;34.83;101367.06;6041006;28;20076;-67
2022/06/04 14:25:07;;;;;;;5.03;2.75;;;;;;;26.24;37.16;101363.53;6029889;28;20053;-67
2022/06/04 14:28:10;;;;;;;4.22;2.97;;;;;;;26.59;37.08;101353.56;6034889;28;20045;-67
2022/06/04 14:31:38;;;;;;;4.97;2.70;;;;;;;27.16;35.28;101362.78;6029037;28;20115;-67
2022/06/04 14:34:37;;;;;;;4.70;2.80;;;;;;;27.39;35.38;101348.31;6044301;28;20038;-67
2022/06/04 14:37:41;;;;;;;5.50;3.40;;;;;;;27.35;35.29;101358.00;6029420;28;20030;-67